createdAt,value
2019-02-10T00:00:38.030Z,6.60
2019-02-10T00:03:08.776Z,6.70
2019-02-10T00:05:40.618Z,6.70
2019-02-10T00:08:12.353Z,6.70
2019-02-10T00:10:42.912Z,6.60
2019-02-10T00:13:27.458Z,6.60
2019-02-10T00:15:58.706Z,6.60
2019-02-10T00:18:29.359Z,6.50
2019-02-10T00:21:00.025Z,6.50
2019-02-10T00:23:30.789Z,6.50
2019-02-10T00:26:01.413Z,6.50
2019-02-10T00:28:32.000Z,6.50
2019-02-10T00:31:02.704Z,6.50
2019-02-10T00:33:33.399Z,6.50
2019-02-10T00:36:04.026Z,6.50
2019-02-10T00:38:34.776Z,6.50
2019-02-10T00:41:05.422Z,6.50
2019-02-10T00:43:36.181Z,6.50
2019-02-10T00:46:07.241Z,6.50
2019-02-10T00:48:37.946Z,6.40
2019-02-10T00:51:08.671Z,6.30
2019-02-10T00:53:39.356Z,6.30
2019-02-10T00:56:10.003Z,6.30
2019-02-10T00:58:40.616Z,6.30
2019-02-10T01:01:11.376Z,6.30
2019-02-10T01:03:42.150Z,6.30
2019-02-10T01:06:13.209Z,6.30
2019-02-10T01:08:43.943Z,6.30
2019-02-10T01:11:14.511Z,6.30
2019-02-10T01:13:45.202Z,6.30
2019-02-10T01:16:15.889Z,6.30
2019-02-10T01:19:08.748Z,6.30
2019-02-10T01:21:43.901Z,6.20
2019-02-10T01:24:14.491Z,6.20
2019-02-10T01:26:45.155Z,6.20
2019-02-10T01:29:15.794Z,6.10
2019-02-10T01:31:46.562Z,6.10
2019-02-10T01:34:17.143Z,6.00
2019-02-10T01:36:49.698Z,6.00
2019-02-10T01:39:21.639Z,6.00
2019-02-10T01:41:52.565Z,6.00
2019-02-10T01:44:23.193Z,6.00
2019-02-10T01:46:53.840Z,6.00
2019-02-10T01:49:24.428Z,6.00
2019-02-10T01:51:54.990Z,6.10
2019-02-10T01:54:26.031Z,6.10
2019-02-10T01:56:56.611Z,6.10
2019-02-10T01:59:27.272Z,6.10
2019-02-10T02:01:57.936Z,6.10
2019-02-10T02:04:28.475Z,6.20
2019-02-10T02:06:59.043Z,6.20
2019-02-10T02:09:30.837Z,6.20
2019-02-10T02:12:01.484Z,6.20
2019-02-10T02:14:32.134Z,6.20
2019-02-10T02:17:02.893Z,6.20
2019-02-10T02:19:33.555Z,6.20
2019-02-10T02:22:04.163Z,6.20
2019-02-10T02:24:35.857Z,6.20
2019-02-10T02:27:06.562Z,6.10
2019-02-10T02:29:37.173Z,6.10
2019-02-10T02:32:07.857Z,6.10
2019-02-10T02:34:38.801Z,6.10
2019-02-10T02:37:09.783Z,6.20
2019-02-10T02:39:40.412Z,6.20
2019-02-10T02:42:11.013Z,6.30
2019-02-10T02:44:41.681Z,6.30
2019-02-10T02:47:12.410Z,6.30
2019-02-10T02:49:43.033Z,6.30
2019-02-10T02:52:13.686Z,6.30
2019-02-10T02:54:44.370Z,6.30
2019-02-10T02:57:15.058Z,6.40
2019-02-10T02:59:45.771Z,6.30
2019-02-10T03:02:16.385Z,6.30
2019-02-10T03:04:47.131Z,6.30
2019-02-10T03:07:18.725Z,6.40
2019-02-10T03:09:49.505Z,6.40
2019-02-10T03:12:20.152Z,6.40
2019-02-10T03:14:50.796Z,6.40
2019-02-10T03:17:21.615Z,6.40
2019-02-10T03:19:52.139Z,6.40
2019-02-10T03:22:23.866Z,6.40
2019-02-10T03:24:54.492Z,6.40
2019-02-10T03:27:25.097Z,6.50
2019-02-10T03:29:55.724Z,6.50
2019-02-10T03:32:26.431Z,6.50
2019-02-10T03:34:57.414Z,6.50
2019-02-10T03:37:28.141Z,6.50
2019-02-10T03:39:58.694Z,6.60
2019-02-10T03:42:29.226Z,6.60
2019-02-10T03:45:00.285Z,6.60
2019-02-10T03:47:31.023Z,6.60
2019-02-10T03:50:02.062Z,6.60
2019-02-10T03:52:32.782Z,6.60
2019-02-10T03:55:03.384Z,6.60
2019-02-10T03:57:34.167Z,6.60
2019-02-10T04:00:05.197Z,6.60
2019-02-10T04:02:36.079Z,6.60
2019-02-10T04:05:06.929Z,6.60
2019-02-10T04:07:37.455Z,6.70
2019-02-10T04:10:08.682Z,6.70
2019-02-10T04:12:39.438Z,6.70
2019-02-10T04:15:10.309Z,6.80
2019-02-10T04:17:40.877Z,6.80
2019-02-10T04:20:11.937Z,6.80
2019-02-10T04:22:42.610Z,6.80
2019-02-10T04:25:13.276Z,6.90
2019-02-10T04:27:44.017Z,6.90
2019-02-10T04:30:14.735Z,6.90
2019-02-10T04:32:45.417Z,6.90
2019-02-10T04:35:16.363Z,6.90
2019-02-10T04:37:47.019Z,6.90
2019-02-10T04:40:17.661Z,6.90
2019-02-10T04:42:48.889Z,7.00
2019-02-10T04:45:19.507Z,6.90
2019-02-10T04:47:50.106Z,7.00
2019-02-10T04:50:21.069Z,7.00
2019-02-10T04:52:51.834Z,7.00
2019-02-10T04:55:22.493Z,7.00
2019-02-10T04:57:53.180Z,7.00
2019-02-10T05:00:23.951Z,7.00
2019-02-10T05:02:54.679Z,7.10
2019-02-10T05:05:25.663Z,7.10
2019-02-10T05:07:56.205Z,7.10
2019-02-10T05:10:26.925Z,7.10
2019-02-10T05:12:57.703Z,7.00
2019-02-10T05:15:28.584Z,7.10
2019-02-10T05:17:59.268Z,7.10
2019-02-10T05:20:29.985Z,7.00
2019-02-10T05:23:00.606Z,7.10
2019-02-10T05:25:31.311Z,7.10
2019-02-10T05:28:02.289Z,7.10
2019-02-10T05:30:33.240Z,7.10
2019-02-10T05:33:03.788Z,7.10
2019-02-10T05:35:34.429Z,7.10
2019-02-10T05:38:05.146Z,7.10
2019-02-10T05:40:36.286Z,7.10
2019-02-10T05:43:06.804Z,7.20
2019-02-10T05:45:37.470Z,7.20
2019-02-10T05:48:08.052Z,7.20
2019-02-10T05:50:39.008Z,7.20
2019-02-10T05:53:09.645Z,7.20
2019-02-10T05:55:40.546Z,7.20
2019-02-10T05:58:11.231Z,7.20
2019-02-10T06:00:41.904Z,7.20
2019-02-10T06:03:12.641Z,7.20
2019-02-10T06:05:43.299Z,7.30
2019-02-10T06:08:13.951Z,7.30
2019-02-10T06:10:44.602Z,7.30
2019-02-10T06:13:15.221Z,7.30
2019-02-10T06:15:45.784Z,7.30
2019-02-10T06:18:16.468Z,7.30
2019-02-10T06:20:47.020Z,7.30
2019-02-10T06:23:17.599Z,7.30
2019-02-10T06:25:48.215Z,7.30
2019-02-10T06:28:18.746Z,7.30
2019-02-10T06:30:49.713Z,7.40
2019-02-10T06:33:20.402Z,7.40
2019-02-10T06:35:51.008Z,7.40
2019-02-10T06:38:22.754Z,7.50
2019-02-10T06:40:53.513Z,7.50
2019-02-10T06:43:24.606Z,7.50
2019-02-10T06:45:55.312Z,7.50
2019-02-10T06:48:25.974Z,7.50
2019-02-10T06:50:56.653Z,7.50
2019-02-10T06:53:27.380Z,7.60
2019-02-10T06:55:57.975Z,7.50
2019-02-10T06:58:28.590Z,7.60
2019-02-10T07:01:08.537Z,7.60
2019-02-10T07:04:00.195Z,7.60
2019-02-10T07:06:30.976Z,7.60
2019-02-10T07:09:01.709Z,7.60
2019-02-10T07:11:34.013Z,7.60
2019-02-10T07:14:07.936Z,7.60
2019-02-10T07:16:51.480Z,7.70
2019-02-10T07:20:15.027Z,7.60
2019-02-10T07:22:57.381Z,7.70
2019-02-10T07:26:06.297Z,7.60
2019-02-10T07:29:36.461Z,7.70
2019-02-10T07:32:23.660Z,7.70
2019-02-10T07:35:40.594Z,7.70
2019-02-10T07:39:05.129Z,7.70
2019-02-10T07:42:13.945Z,7.70
2019-02-10T07:45:13.199Z,7.70
2019-02-10T07:48:26.877Z,7.80
2019-02-10T07:51:37.171Z,7.80
2019-02-10T07:54:42.350Z,7.80
2019-02-10T07:57:52.133Z,7.80
2019-02-10T08:00:35.398Z,7.90
2019-02-10T08:03:36.960Z,8.00
2019-02-10T08:06:33.500Z,8.10
2019-02-10T08:09:43.963Z,8.10
2019-02-10T08:12:41.177Z,8.20
2019-02-10T08:15:33.447Z,8.30
2019-02-10T08:18:26.486Z,8.40
2019-02-10T08:21:26.861Z,8.50
2019-02-10T08:24:24.718Z,8.50
2019-02-10T08:27:39.578Z,8.60
2019-02-10T08:30:58.342Z,8.60
2019-02-10T08:33:40.285Z,8.70
2019-02-10T08:36:56.166Z,8.80
2019-02-10T08:39:50.274Z,8.80
2019-02-10T08:42:36.301Z,8.80
2019-02-10T08:45:28.519Z,8.80
2019-02-10T08:48:38.078Z,8.90
2019-02-10T08:51:44.720Z,8.90
2019-02-10T08:54:15.300Z,8.90
2019-02-10T08:56:45.920Z,8.90
2019-02-10T08:59:16.932Z,8.80
2019-02-10T09:01:47.513Z,8.80
2019-02-10T09:04:19.170Z,8.90
2019-02-10T09:06:49.911Z,8.90
2019-02-10T09:09:20.507Z,9.00
2019-02-10T09:11:51.280Z,9.00
2019-02-10T09:14:22.002Z,9.00
2019-02-10T09:16:52.766Z,9.00
2019-02-10T09:19:23.392Z,9.10
2019-02-10T09:21:54.062Z,9.10
2019-02-10T09:24:25.054Z,9.20
2019-02-10T09:26:55.649Z,9.20
2019-02-10T09:29:26.333Z,9.30
2019-02-10T09:31:58.107Z,9.30
2019-02-10T09:34:29.127Z,9.30
2019-02-10T09:36:59.864Z,9.20
2019-02-10T09:39:30.523Z,9.20
2019-02-10T09:42:01.153Z,9.20
2019-02-10T09:44:32.105Z,9.20
2019-02-10T09:47:02.870Z,9.30
2019-02-10T09:49:33.550Z,9.40
2019-02-10T09:52:04.233Z,9.40
2019-02-10T09:54:34.747Z,9.50
2019-02-10T09:57:05.508Z,9.60
2019-02-10T09:59:36.542Z,9.70
2019-02-10T10:02:07.129Z,9.70
2019-02-10T10:04:39.055Z,9.80
2019-02-10T10:07:09.855Z,9.90
2019-02-10T10:09:40.580Z,10.00
2019-02-10T10:12:11.259Z,10.10
2019-02-10T10:14:41.975Z,10.10
2019-02-10T10:17:12.738Z,10.10
2019-02-10T10:19:43.335Z,10.20
2019-02-10T10:22:13.960Z,10.20
2019-02-10T10:24:50.351Z,10.20
2019-02-10T10:27:16.857Z,10.20
2019-02-10T10:29:47.511Z,10.20
2019-02-10T10:32:18.274Z,10.30
2019-02-10T10:34:50.285Z,10.30
2019-02-10T10:37:20.931Z,10.40
2019-02-10T10:39:51.648Z,10.40
2019-02-10T10:42:22.221Z,10.50
2019-02-10T10:44:52.897Z,10.60
2019-02-10T10:47:23.589Z,10.60
2019-02-10T10:49:54.305Z,10.70
2019-02-10T10:52:24.989Z,10.70
2019-02-10T10:54:55.696Z,10.70
2019-02-10T10:57:26.362Z,10.70
2019-02-10T10:59:57.035Z,10.80
2019-02-10T11:02:27.644Z,10.80
2019-02-10T11:04:58.271Z,10.90
2019-02-10T11:07:28.845Z,10.90
2019-02-10T11:09:59.897Z,11.00
2019-02-10T11:12:30.470Z,11.10
2019-02-10T11:15:01.091Z,11.20
2019-02-10T11:17:31.913Z,11.20
2019-02-10T11:20:02.776Z,11.30
2019-02-10T11:22:33.632Z,11.40
2019-02-10T11:25:04.684Z,11.40
2019-02-10T11:27:35.227Z,11.50
2019-02-10T11:30:06.107Z,11.60
2019-02-10T11:32:36.801Z,11.60
2019-02-10T11:35:07.910Z,11.70
2019-02-10T11:37:38.448Z,11.70
2019-02-10T11:40:09.209Z,11.80
2019-02-10T11:42:39.808Z,11.80
2019-02-10T11:45:10.866Z,11.90
2019-02-10T11:47:41.455Z,12.00
2019-02-10T11:50:12.042Z,12.10
2019-02-10T11:52:42.624Z,12.10
2019-02-10T11:55:13.871Z,12.20
2019-02-10T11:57:44.750Z,12.20
2019-02-10T12:00:15.657Z,12.30
2019-02-10T12:02:46.235Z,12.30
2019-02-10T12:05:17.589Z,12.30
2019-02-10T12:07:48.601Z,12.30
2019-02-10T12:10:19.687Z,12.30
2019-02-10T12:12:50.364Z,12.40
2019-02-10T12:15:21.101Z,12.40
2019-02-10T12:17:51.774Z,12.50
2019-02-10T12:20:22.429Z,12.50
2019-02-10T12:22:53.238Z,12.40
2019-02-10T12:25:23.932Z,12.40
2019-02-10T12:27:54.913Z,12.50
2019-02-10T12:30:25.595Z,12.50
2019-02-10T12:32:56.211Z,12.50
2019-02-10T12:35:26.996Z,12.40
2019-02-10T12:37:57.776Z,12.30
2019-02-10T12:40:28.656Z,12.30
2019-02-10T12:42:59.342Z,12.20
2019-02-10T12:45:30.044Z,12.20
2019-02-10T12:48:00.701Z,12.20
2019-02-10T12:50:31.314Z,12.20
2019-02-10T12:53:01.957Z,12.30
2019-02-10T12:55:32.612Z,12.30
2019-02-10T12:58:03.113Z,12.30
2019-02-10T13:00:33.758Z,12.30
2019-02-10T13:03:04.347Z,12.20
2019-02-10T13:05:34.931Z,12.20
2019-02-10T13:08:05.954Z,12.20
2019-02-10T13:10:36.516Z,12.20
2019-02-10T13:13:26.189Z,12.30
2019-02-10T13:15:56.905Z,12.20
2019-02-10T13:18:27.574Z,12.20
2019-02-10T13:20:58.225Z,12.30
2019-02-10T13:23:28.885Z,12.30
2019-02-10T13:25:59.511Z,12.40
2019-02-10T13:28:30.175Z,12.50
2019-02-10T13:31:00.824Z,12.50
2019-02-10T13:33:31.910Z,12.60
2019-02-10T13:36:02.946Z,12.60
2019-02-10T13:38:33.498Z,12.60
2019-02-10T13:41:04.228Z,12.60
2019-02-10T13:43:34.913Z,12.60
2019-02-10T13:46:05.590Z,12.60
2019-02-10T13:48:36.555Z,12.60
2019-02-10T13:51:07.191Z,12.60
2019-02-10T13:53:38.021Z,12.70
2019-02-10T13:56:08.921Z,12.70
2019-02-10T13:58:41.076Z,12.70
2019-02-10T14:01:12.325Z,12.80
2019-02-10T14:03:43.433Z,12.80
2019-02-10T14:06:14.711Z,12.90
2019-02-10T14:08:45.952Z,12.90
2019-02-10T14:11:18.238Z,12.90
2019-02-10T14:14:00.919Z,13.00
2019-02-10T14:16:31.625Z,13.00
2019-02-10T14:19:02.451Z,13.10
2019-02-10T14:21:33.061Z,13.10
2019-02-10T14:24:03.620Z,13.10
2019-02-10T14:26:34.227Z,13.10
2019-02-10T14:29:05.931Z,13.00
2019-02-10T14:31:36.467Z,13.00
2019-02-10T14:34:07.117Z,13.00
2019-02-10T14:36:37.801Z,13.00
2019-02-10T14:39:08.499Z,12.90
2019-02-10T14:41:39.083Z,12.80
2019-02-10T14:44:09.736Z,12.80
2019-02-10T14:46:40.402Z,12.70
2019-02-10T14:49:11.055Z,12.60
2019-02-10T14:51:41.626Z,12.50
2019-02-10T14:54:12.279Z,12.30
2019-02-10T14:56:43.237Z,12.20
2019-02-10T14:59:13.744Z,12.10
2019-02-10T15:01:44.454Z,12.00
2019-02-10T15:04:15.467Z,11.90
2019-02-10T15:06:46.109Z,11.90
2019-02-10T15:09:16.745Z,11.80
2019-02-10T15:11:47.382Z,11.70
2019-02-10T15:14:17.917Z,11.60
2019-02-10T15:16:48.623Z,11.60
2019-02-10T15:19:19.391Z,11.50
2019-02-10T15:21:50.079Z,11.40
2019-02-10T15:24:21.150Z,11.30
2019-02-10T15:26:51.835Z,11.30
2019-02-10T15:29:22.514Z,11.20
2019-02-10T15:31:53.249Z,11.10
2019-02-10T15:34:23.811Z,11.00
2019-02-10T15:36:54.433Z,11.00
2019-02-10T15:39:25.303Z,10.90
2019-02-10T15:41:56.021Z,10.90
2019-02-10T15:44:26.709Z,10.80
2019-02-10T15:46:57.431Z,10.80
2019-02-10T15:49:28.030Z,10.70
2019-02-10T15:51:58.732Z,10.70
2019-02-10T15:54:30.463Z,10.70
2019-02-10T15:57:01.234Z,10.70
2019-02-10T15:59:32.020Z,10.60
2019-02-10T16:02:02.813Z,10.50
2019-02-10T16:04:33.406Z,10.50
2019-02-10T16:07:04.117Z,10.40
2019-02-10T16:09:35.122Z,10.40
2019-02-10T16:12:05.736Z,10.40
2019-02-10T16:14:36.336Z,10.30
2019-02-10T16:17:07.049Z,10.30
2019-02-10T16:19:37.711Z,10.20
2019-02-10T16:22:08.438Z,10.20
2019-02-10T16:24:39.074Z,10.10
2019-02-10T16:27:09.630Z,10.10
2019-02-10T16:29:40.645Z,10.10
2019-02-10T16:32:11.223Z,10.00
2019-02-10T16:34:41.779Z,10.00
2019-02-10T16:37:12.449Z,10.00
2019-02-10T16:39:43.065Z,10.00
2019-02-10T16:42:13.709Z,10.00
2019-02-10T16:44:44.260Z,10.00
2019-02-10T16:47:14.955Z,10.10
2019-02-10T16:49:45.605Z,10.10
2019-02-10T16:52:16.337Z,10.10
2019-02-10T16:54:46.957Z,10.10
2019-02-10T16:57:17.748Z,10.20
2019-02-10T16:59:49.484Z,10.20
2019-02-10T17:02:20.091Z,10.30
2019-02-10T17:04:50.802Z,10.20
2019-02-10T17:07:21.472Z,10.20
2019-02-10T17:09:52.507Z,10.10
2019-02-10T17:12:23.133Z,10.00
2019-02-10T17:14:54.317Z,9.80
2019-02-10T17:17:25.463Z,9.70
2019-02-10T17:19:56.463Z,9.60
2019-02-10T17:22:27.205Z,9.50
2019-02-10T17:24:57.786Z,9.50
2019-02-10T17:27:28.530Z,9.40
2019-02-10T17:29:59.111Z,9.30
2019-02-10T17:32:29.884Z,9.20
2019-02-10T17:35:00.548Z,9.10
2019-02-10T17:37:31.254Z,9.10
2019-02-10T17:40:01.925Z,9.00
2019-02-10T17:42:33.095Z,8.90
2019-02-10T17:45:03.742Z,8.90
2019-02-10T17:47:34.418Z,8.80
2019-02-10T17:50:05.357Z,8.70
2019-02-10T17:52:36.044Z,8.70
2019-02-10T17:55:07.212Z,8.60
2019-02-10T17:57:37.984Z,8.50
2019-02-10T18:00:09.631Z,8.50
2019-02-10T18:02:40.453Z,8.50
2019-02-10T18:05:11.255Z,8.50
2019-02-10T18:07:41.908Z,8.40
2019-02-10T18:10:12.731Z,8.40
2019-02-10T18:12:43.495Z,8.30
2019-02-10T18:15:36.213Z,8.30
2019-02-10T18:18:25.306Z,8.20
2019-02-10T18:21:16.928Z,8.20
2019-02-10T18:24:12.889Z,8.20
2019-02-10T18:26:53.847Z,8.20
2019-02-10T18:29:36.600Z,8.20
2019-02-10T18:32:30.755Z,8.20
2019-02-10T18:35:30.085Z,8.20
2019-02-10T18:38:34.677Z,8.20
2019-02-10T18:41:23.439Z,8.20
2019-02-10T18:44:11.285Z,8.20
2019-02-10T18:47:00.010Z,8.10
2019-02-10T18:49:48.311Z,8.10
2019-02-10T18:52:30.888Z,8.10
2019-02-10T18:55:15.201Z,8.10
2019-02-10T18:57:56.099Z,8.10
2019-02-10T19:00:48.739Z,8.10
2019-02-10T19:03:27.459Z,8.20
2019-02-10T19:06:09.279Z,8.20
2019-02-10T19:09:03.786Z,8.20
2019-02-10T19:12:09.651Z,8.20
2019-02-10T19:14:58.027Z,8.20
2019-02-10T19:17:46.398Z,8.20
2019-02-10T19:20:26.011Z,8.10
2019-02-10T19:23:02.510Z,8.00
2019-02-10T19:25:52.877Z,8.00
2019-02-10T19:28:54.875Z,7.90
2019-02-10T19:31:43.535Z,7.90
2019-02-10T19:34:25.320Z,7.90
2019-02-10T19:37:15.099Z,7.80
2019-02-10T19:39:52.087Z,7.80
2019-02-10T19:42:29.889Z,7.80
2019-02-10T19:45:18.808Z,7.80
2019-02-10T19:48:00.401Z,7.80
2019-02-10T19:50:49.982Z,7.70
2019-02-10T19:53:39.615Z,7.70
2019-02-10T19:56:27.790Z,7.60
2019-02-10T19:59:16.378Z,7.50
2019-02-10T20:02:08.736Z,7.40
2019-02-10T20:05:05.171Z,7.40
2019-02-10T20:08:07.599Z,7.40
2019-02-10T20:11:00.531Z,7.40
2019-02-10T20:13:45.791Z,7.50
2019-02-10T20:16:34.638Z,7.50
2019-02-10T20:19:27.094Z,7.60
2019-02-10T20:22:14.924Z,7.60
2019-02-10T20:25:01.994Z,7.60
2019-02-10T20:28:05.117Z,7.50
2019-02-10T20:30:56.420Z,7.40
2019-02-10T20:33:45.586Z,7.30
2019-02-10T20:36:33.796Z,7.10
2019-02-10T20:39:26.737Z,7.00
2019-02-10T20:42:28.457Z,6.90
2019-02-10T20:45:23.961Z,7.00
2019-02-10T20:48:13.538Z,7.10
2019-02-10T20:51:07.634Z,7.30
2019-02-10T20:54:06.170Z,7.30
2019-02-10T20:56:54.963Z,7.40
2019-02-10T20:59:50.740Z,7.40
2019-02-10T21:02:33.875Z,7.30
2019-02-10T21:05:21.272Z,7.10
2019-02-10T21:08:10.965Z,6.90
2019-02-10T21:10:59.437Z,6.80
2019-02-10T21:13:42.180Z,6.60
2019-02-10T21:16:31.775Z,6.50
2019-02-10T21:19:09.644Z,6.40
2019-02-10T21:22:08.247Z,6.30
2019-02-10T21:25:03.290Z,6.40
2019-02-10T21:27:52.717Z,6.50
2019-02-10T21:30:45.106Z,6.50
2019-02-10T21:33:28.286Z,6.40
2019-02-10T21:36:36.843Z,6.30
2019-02-10T21:39:17.577Z,6.20
2019-02-10T21:42:06.420Z,6.10
2019-02-10T21:44:58.845Z,6.10
2019-02-10T21:47:34.713Z,6.10
2019-02-10T21:50:05.949Z,6.20
2019-02-10T21:52:36.574Z,6.20
2019-02-10T21:55:08.805Z,6.20
2019-02-10T21:57:40.419Z,6.30
2019-02-10T22:00:12.522Z,6.30
2019-02-10T22:02:43.425Z,6.50
2019-02-10T22:05:14.168Z,6.50
2019-02-10T22:07:44.883Z,6.60
2019-02-10T22:10:15.541Z,6.50
2019-02-10T22:12:46.188Z,6.50
2019-02-10T22:15:16.745Z,6.50
2019-02-10T22:17:47.439Z,6.60
2019-02-10T22:20:18.179Z,6.70
2019-02-10T22:22:48.903Z,6.80
2019-02-10T22:25:19.577Z,6.80
2019-02-10T22:27:50.270Z,6.90
2019-02-10T22:30:20.900Z,6.90
2019-02-10T22:32:51.593Z,6.90
2019-02-10T22:35:22.191Z,6.90
2019-02-10T22:37:53.063Z,6.90
2019-02-10T22:40:23.687Z,6.90
2019-02-10T22:42:54.259Z,6.80
2019-02-10T22:45:25.091Z,6.80
2019-02-10T22:47:55.739Z,6.70
2019-02-10T22:50:26.373Z,6.70
2019-02-10T22:52:57.112Z,6.70
2019-02-10T22:55:27.822Z,6.70
2019-02-10T22:57:58.515Z,6.80
2019-02-10T23:00:49.082Z,6.80
2019-02-10T23:03:20.513Z,6.80
2019-02-10T23:05:51.254Z,6.80
2019-02-10T23:08:21.825Z,6.90
2019-02-10T23:10:52.516Z,6.80
2019-02-10T23:13:23.797Z,6.80
2019-02-10T23:15:54.383Z,6.90
2019-02-10T23:18:24.957Z,6.90
2019-02-10T23:20:56.000Z,6.90
2019-02-10T23:23:26.590Z,6.90
2019-02-10T23:25:57.338Z,6.90
2019-02-10T23:28:28.047Z,6.90
2019-02-10T23:30:58.730Z,6.90
2019-02-10T23:33:29.381Z,6.90
2019-02-10T23:35:59.940Z,7.00
2019-02-10T23:38:30.505Z,7.00
2019-02-10T23:41:01.517Z,7.00
2019-02-10T23:43:32.361Z,6.90
2019-02-10T23:46:03.331Z,6.90
2019-02-10T23:48:33.910Z,6.90
2019-02-10T23:51:04.442Z,6.90
2019-02-10T23:53:35.191Z,6.90
2019-02-10T23:56:05.807Z,6.90
2019-02-10T23:58:36.852Z,6.80
